sensor_id;sensor_type;location;lat;lon;timestamp;pressure;altitude;pressure_sealevel;temperature;humidity
75891;BME280;64571;47.512;19.054;2023-01-25T00:00:24;102047.84;;;3.55;85.80
75891;BME280;64571;47.512;19.054;2023-01-25T00:03:28;102037.94;;;3.61;86.47
75891;BME280;64571;47.512;19.054;2023-01-25T00:06:31;102054.00;;;3.64;85.65
75891;BME280;64571;47.512;19.054;2023-01-25T00:09:33;102051.47;;;3.63;85.64
75891;BME280;64571;47.512;19.054;2023-01-25T00:12:36;102043.84;;;3.58;85.82
75891;BME280;64571;47.512;19.054;2023-01-25T00:15:38;102059.31;;;3.66;85.90
75891;BME280;64571;47.512;19.054;2023-01-25T00:18:41;102073.91;;;3.66;85.88
75891;BME280;64571;47.512;19.054;2023-01-25T00:21:44;102062.66;;;3.54;85.72
75891;BME280;64571;47.512;19.054;2023-01-25T00:24:46;102068.81;;;3.57;85.69
75891;BME280;64571;47.512;19.054;2023-01-25T00:27:49;102067.09;;;3.55;85.73
75891;BME280;64571;47.512;19.054;2023-01-25T00:30:51;102066.47;;;3.60;85.57
75891;BME280;64571;47.512;19.054;2023-01-25T00:34:00;102065.84;;;3.58;85.41
75891;BME280;64571;47.512;19.054;2023-01-25T00:40:22;102057.59;;;3.38;85.88
75891;BME280;64571;47.512;19.054;2023-01-25T00:43:25;102061.16;;;3.32;86.19
75891;BME280;64571;47.512;19.054;2023-01-25T00:46:27;102049.53;;;3.17;86.36
75891;BME280;64571;47.512;19.054;2023-01-25T00:49:30;102062.41;;;3.23;86.37
75891;BME280;64571;47.512;19.054;2023-01-25T00:52:33;102045.28;;;3.14;86.55
75891;BME280;64571;47.512;19.054;2023-01-25T00:55:36;102064.31;;;3.22;86.57
75891;BME280;64571;47.512;19.054;2023-01-25T00:58:39;102071.31;;;3.32;86.49
75891;BME280;64571;47.512;19.054;2023-01-25T01:01:42;102066.03;;;3.37;86.32
75891;BME280;64571;47.512;19.054;2023-01-25T01:04:45;102074.50;;;3.35;86.22
75891;BME280;64571;47.512;19.054;2023-01-25T01:07:48;102070.91;;;3.35;86.22
75891;BME280;64571;47.512;19.054;2023-01-25T01:11:05;102076.81;;;3.32;86.06
75891;BME280;64571;47.512;19.054;2023-01-25T01:14:08;102079.34;;;3.26;86.25
75891;BME280;64571;47.512;19.054;2023-01-25T01:17:11;102076.38;;;3.28;86.29
75891;BME280;64571;47.512;19.054;2023-01-25T01:20:14;102077.87;;;3.30;86.36
75891;BME280;64571;47.512;19.054;2023-01-25T01:23:18;102070.66;;;3.23;86.47
75891;BME280;64571;47.512;19.054;2023-01-25T01:26:20;102081.22;;;3.26;86.40
75891;BME280;64571;47.512;19.054;2023-01-25T01:29:23;102072.12;;;3.19;86.75
75891;BME280;64571;47.512;19.054;2023-01-25T01:32:26;102073.59;;;3.15;86.85
75891;BME280;64571;47.512;19.054;2023-01-25T01:35:29;102082.03;;;3.13;87.29
75891;BME280;64571;47.512;19.054;2023-01-25T01:38:32;102076.31;;;3.08;87.08
75891;BME280;64571;47.512;19.054;2023-01-25T01:41:36;102091.34;;;3.12;87.46
75891;BME280;64571;47.512;19.054;2023-01-25T01:44:46;102085.84;;;3.12;87.39
75891;BME280;64571;47.512;19.054;2023-01-25T01:47:49;102084.78;;;3.07;87.37
75891;BME280;64571;47.512;19.054;2023-01-25T01:50:55;102074.41;;;3.02;87.29
75891;BME280;64571;47.512;19.054;2023-01-25T01:54:06;102062.94;;;2.85;87.34
75891;BME280;64571;47.512;19.054;2023-01-25T02:00:37;102069.50;;;2.84;87.30
75891;BME280;64571;47.512;19.054;2023-01-25T02:03:41;102072.00;;;2.79;87.34
75891;BME280;64571;47.512;19.054;2023-01-25T02:06:51;102072.19;;;2.77;87.10
75891;BME280;64571;47.512;19.054;2023-01-25T02:09:56;102065.88;;;2.77;87.16
75891;BME280;64571;47.512;19.054;2023-01-25T02:13:00;102068.16;;;2.73;87.33
75891;BME280;64571;47.512;19.054;2023-01-25T02:16:03;102065.88;;;2.77;87.29
75891;BME280;64571;47.512;19.054;2023-01-25T02:19:06;102060.16;;;2.78;87.43
75891;BME280;64571;47.512;19.054;2023-01-25T02:22:14;102064.19;;;2.83;87.08
75891;BME280;64571;47.512;19.054;2023-01-25T02:25:26;102058.91;;;2.81;86.92
75891;BME280;64571;47.512;19.054;2023-01-25T02:28:34;102070.78;;;2.95;86.86
75891;BME280;64571;47.512;19.054;2023-01-25T02:31:37;102060.84;;;2.87;86.69
75891;BME280;64571;47.512;19.054;2023-01-25T02:34:40;102054.66;;;2.78;86.69
75891;BME280;64571;47.512;19.054;2023-01-25T02:37:43;102054.50;;;2.80;86.72
75891;BME280;64571;47.512;19.054;2023-01-25T02:41:05;102039.66;;;2.74;87.30
75891;BME280;64571;47.512;19.054;2023-01-25T02:44:13;102047.28;;;2.79;86.93
75891;BME280;64571;47.512;19.054;2023-01-25T02:47:17;102042.00;;;2.77;86.73
75891;BME280;64571;47.512;19.054;2023-01-25T02:50:20;102020.88;;;2.71;87.02
75891;BME280;64571;47.512;19.054;2023-01-25T02:53:22;102023.81;;;2.70;86.86
75891;BME280;64571;47.512;19.054;2023-01-25T02:56:26;102014.94;;;2.68;86.98
75891;BME280;64571;47.512;19.054;2023-01-25T02:59:29;102007.97;;;2.65;87.06
75891;BME280;64571;47.512;19.054;2023-01-25T03:02:32;102029.75;;;2.73;86.90
75891;BME280;64571;47.512;19.054;2023-01-25T03:05:35;102025.09;;;2.74;86.86
75891;BME280;64571;47.512;19.054;2023-01-25T03:08:37;102011.53;;;2.59;87.00
75891;BME280;64571;47.512;19.054;2023-01-25T03:11:40;102011.94;;;2.56;87.04
75891;BME280;64571;47.512;19.054;2023-01-25T03:14:43;102018.88;;;2.52;86.86
75891;BME280;64571;47.512;19.054;2023-01-25T03:17:46;102023.13;;;2.48;86.61
75891;BME280;64571;47.512;19.054;2023-01-25T03:20:48;102014.41;;;2.38;86.57
75891;BME280;64571;47.512;19.054;2023-01-25T03:23:57;102028.78;;;2.40;86.79
75891;BME280;64571;47.512;19.054;2023-01-25T03:27:01;102015.22;;;2.38;86.74
75891;BME280;64571;47.512;19.054;2023-01-25T03:30:15;102018.88;;;2.45;86.89
75891;BME280;64571;47.512;19.054;2023-01-25T03:33:17;102020.09;;;2.43;86.14
75891;BME280;64571;47.512;19.054;2023-01-25T03:36:20;102012.87;;;2.28;86.20
75891;BME280;64571;47.512;19.054;2023-01-25T03:39:23;102011.97;;;2.15;86.37
75891;BME280;64571;47.512;19.054;2023-01-25T03:42:26;102018.44;;;2.07;86.39
75891;BME280;64571;47.512;19.054;2023-01-25T03:45:28;102019.25;;;2.01;86.34
75891;BME280;64571;47.512;19.054;2023-01-25T03:48:31;102027.94;;;2.05;86.33
75891;BME280;64571;47.512;19.054;2023-01-25T03:51:34;102022.59;;;1.96;86.36
75891;BME280;64571;47.512;19.054;2023-01-25T03:54:37;102008.63;;;1.85;86.40
75891;BME280;64571;47.512;19.054;2023-01-25T03:57:41;102013.66;;;1.81;86.62
75891;BME280;64571;47.512;19.054;2023-01-25T04:00:45;102011.75;;;1.82;86.59
75891;BME280;64571;47.512;19.054;2023-01-25T04:03:48;102027.53;;;1.80;86.70
75891;BME280;64571;47.512;19.054;2023-01-25T04:06:51;102022.22;;;1.71;87.09
75891;BME280;64571;47.512;19.054;2023-01-25T04:09:54;102017.84;;;1.77;87.02
75891;BME280;64571;47.512;19.054;2023-01-25T04:12:57;102021.81;;;1.74;87.18
75891;BME280;64571;47.512;19.054;2023-01-25T04:16:00;102018.69;;;1.77;86.69
75891;BME280;64571;47.512;19.054;2023-01-25T04:19:05;102019.75;;;1.76;86.52
75891;BME280;64571;47.512;19.054;2023-01-25T04:22:08;102016.47;;;1.66;86.60
75891;BME280;64571;47.512;19.054;2023-01-25T04:25:10;102024.56;;;1.74;87.15
75891;BME280;64571;47.512;19.054;2023-01-25T04:28:15;102034.53;;;1.82;87.03
75891;BME280;64571;47.512;19.054;2023-01-25T04:31:18;102028.06;;;1.90;86.89
75891;BME280;64571;47.512;19.054;2023-01-25T04:34:22;102030.03;;;1.74;87.02
75891;BME280;64571;47.512;19.054;2023-01-25T04:37:25;102033.19;;;1.71;87.22
75891;BME280;64571;47.512;19.054;2023-01-25T04:40:29;102030.44;;;1.71;87.17
75891;BME280;64571;47.512;19.054;2023-01-25T04:43:31;102040.22;;;1.81;87.14
75891;BME280;64571;47.512;19.054;2023-01-25T04:46:35;102036.44;;;1.82;86.98
75891;BME280;64571;47.512;19.054;2023-01-25T04:49:38;102024.62;;;1.81;86.72
75891;BME280;64571;47.512;19.054;2023-01-25T04:52:41;102027.25;;;1.96;86.51
75891;BME280;64571;47.512;19.054;2023-01-25T04:55:45;102033.34;;;1.98;86.53
75891;BME280;64571;47.512;19.054;2023-01-25T04:58:48;102024.88;;;1.93;86.45
75891;BME280;64571;47.512;19.054;2023-01-25T05:01:51;102028.84;;;1.84;86.43
75891;BME280;64571;47.512;19.054;2023-01-25T05:04:54;102020.75;;;1.75;86.47
75891;BME280;64571;47.512;19.054;2023-01-25T05:07:56;102033.81;;;1.73;86.68
75891;BME280;64571;47.512;19.054;2023-01-25T05:10:59;102034.22;;;1.70;86.77
75891;BME280;64571;47.512;19.054;2023-01-25T05:14:02;102036.72;;;1.65;87.21
75891;BME280;64571;47.512;19.054;2023-01-25T05:17:06;102042.75;;;1.54;87.63
75891;BME280;64571;47.512;19.054;2023-01-25T05:20:09;102042.06;;;1.52;87.83
75891;BME280;64571;47.512;19.054;2023-01-25T05:23:15;102043.59;;;1.55;88.05
75891;BME280;64571;47.512;19.054;2023-01-25T05:26:17;102040.88;;;1.61;87.76
75891;BME280;64571;47.512;19.054;2023-01-25T05:29:42;102031.19;;;1.59;87.36
75891;BME280;64571;47.512;19.054;2023-01-25T05:32:47;102045.25;;;1.77;86.90
75891;BME280;64571;47.512;19.054;2023-01-25T05:35:50;102048.69;;;1.86;86.69
75891;BME280;64571;47.512;19.054;2023-01-25T05:38:53;102044.91;;;1.87;86.33
75891;BME280;64571;47.512;19.054;2023-01-25T05:41:56;102053.16;;;1.93;86.06
75891;BME280;64571;47.512;19.054;2023-01-25T05:44:59;102035.00;;;1.92;86.12
75891;BME280;64571;47.512;19.054;2023-01-25T05:48:12;102045.59;;;1.95;85.86
75891;BME280;64571;47.512;19.054;2023-01-25T05:51:15;102037.37;;;1.95;86.07
75891;BME280;64571;47.512;19.054;2023-01-25T05:54:18;102018.56;;;1.92;86.22
75891;BME280;64571;47.512;19.054;2023-01-25T05:57:21;102027.25;;;1.96;86.03
75891;BME280;64571;47.512;19.054;2023-01-25T06:00:24;102034.72;;;2.09;85.80
75891;BME280;64571;47.512;19.054;2023-01-25T06:03:27;102039.34;;;2.08;85.71
75891;BME280;64571;47.512;19.054;2023-01-25T06:06:29;102027.13;;;2.11;85.56
75891;BME280;64571;47.512;19.054;2023-01-25T06:09:32;102023.53;;;2.10;85.44
75891;BME280;64571;47.512;19.054;2023-01-25T06:12:35;102024.81;;;2.14;85.34
75891;BME280;64571;47.512;19.054;2023-01-25T06:15:38;102040.06;;;2.23;85.10
75891;BME280;64571;47.512;19.054;2023-01-25T06:18:45;102041.50;;;2.19;85.07
75891;BME280;64571;47.512;19.054;2023-01-25T06:21:49;102041.72;;;2.18;85.03
75891;BME280;64571;47.512;19.054;2023-01-25T06:24:51;102045.16;;;2.26;85.08
75891;BME280;64571;47.512;19.054;2023-01-25T06:27:54;102059.31;;;2.30;84.91
75891;BME280;64571;47.512;19.054;2023-01-25T06:31:03;102057.41;;;2.31;84.85
75891;BME280;64571;47.512;19.054;2023-01-25T06:34:06;102066.12;;;2.41;84.56
75891;BME280;64571;47.512;19.054;2023-01-25T06:37:10;102058.28;;;2.38;83.57
75891;BME280;64571;47.512;19.054;2023-01-25T06:40:13;102049.81;;;2.33;83.60
75891;BME280;64571;47.512;19.054;2023-01-25T06:43:42;102062.94;;;2.37;83.97
75891;BME280;64571;47.512;19.054;2023-01-25T06:46:45;102062.69;;;2.32;84.76
75891;BME280;64571;47.512;19.054;2023-01-25T06:49:47;102067.09;;;2.26;84.88
75891;BME280;64571;47.512;19.054;2023-01-25T06:52:54;102062.66;;;2.25;85.51
75891;BME280;64571;47.512;19.054;2023-01-25T06:56:01;102057.94;;;2.13;85.51
75891;BME280;64571;47.512;19.054;2023-01-25T06:59:04;102053.91;;;2.09;85.57
75891;BME280;64571;47.512;19.054;2023-01-25T07:02:08;102071.50;;;1.93;85.90
75891;BME280;64571;47.512;19.054;2023-01-25T07:05:11;102069.41;;;1.95;85.92
75891;BME280;64571;47.512;19.054;2023-01-25T07:08:14;102069.88;;;1.98;85.74
75891;BME280;64571;47.512;19.054;2023-01-25T07:11:17;102062.25;;;1.94;85.61
75891;BME280;64571;47.512;19.054;2023-01-25T07:14:20;102071.09;;;1.96;85.41
75891;BME280;64571;47.512;19.054;2023-01-25T07:17:23;102072.16;;;1.95;85.28
75891;BME280;64571;47.512;19.054;2023-01-25T07:20:25;102065.16;;;1.92;85.13
75891;BME280;64571;47.512;19.054;2023-01-25T07:23:29;102058.69;;;2.00;84.86
75891;BME280;64571;47.512;19.054;2023-01-25T07:26:33;102052.97;;;1.95;84.89
75891;BME280;64571;47.512;19.054;2023-01-25T07:29:36;102058.44;;;1.95;84.72
75891;BME280;64571;47.512;19.054;2023-01-25T07:32:38;102053.66;;;2.03;84.74
75891;BME280;64571;47.512;19.054;2023-01-25T07:35:41;102068.06;;;2.12;84.45
75891;BME280;64571;47.512;19.054;2023-01-25T07:38:43;102059.88;;;2.19;84.67
75891;BME280;64571;47.512;19.054;2023-01-25T07:41:46;102044.72;;;2.23;84.51
75891;BME280;64571;47.512;19.054;2023-01-25T07:44:49;102051.50;;;2.34;84.34
75891;BME280;64571;47.512;19.054;2023-01-25T07:47:52;102042.25;;;2.35;83.90
75891;BME280;64571;47.512;19.054;2023-01-25T07:51:03;102056.03;;;2.48;83.81
75891;BME280;64571;47.512;19.054;2023-01-25T07:54:25;102041.44;;;2.41;83.61
75891;BME280;64571;47.512;19.054;2023-01-25T07:57:27;102065.13;;;2.48;83.69
75891;BME280;64571;47.512;19.054;2023-01-25T08:00:30;102061.53;;;2.48;83.72
75891;BME280;64571;47.512;19.054;2023-01-25T08:03:33;102063.66;;;2.52;83.48
75891;BME280;64571;47.512;19.054;2023-01-25T08:06:37;102057.75;;;2.56;83.19
75891;BME280;64571;47.512;19.054;2023-01-25T08:09:41;102054.16;;;2.55;83.04
75891;BME280;64571;47.512;19.054;2023-01-25T08:12:44;102061.78;;;2.60;83.00
75891;BME280;64571;47.512;19.054;2023-01-25T08:15:54;102049.16;;;2.72;82.96
75891;BME280;64571;47.512;19.054;2023-01-25T08:18:58;102045.81;;;2.83;82.27
75891;BME280;64571;47.512;19.054;2023-01-25T08:22:02;102050.50;;;2.89;81.87
75891;BME280;64571;47.512;19.054;2023-01-25T08:25:04;102060.22;;;2.92;81.86
75891;BME280;64571;47.512;19.054;2023-01-25T08:28:08;102050.50;;;2.96;81.77
75891;BME280;64571;47.512;19.054;2023-01-25T08:31:16;102043.56;;;3.00;81.69
75891;BME280;64571;47.512;19.054;2023-01-25T08:34:22;102040.37;;;2.96;81.68
75891;BME280;64571;47.512;19.054;2023-01-25T08:37:25;102035.31;;;3.00;81.54
75891;BME280;64571;47.512;19.054;2023-01-25T08:40:31;102050.31;;;3.11;81.48
75891;BME280;64571;47.512;19.054;2023-01-25T08:43:33;102046.34;;;3.33;80.78
75891;BME280;64571;47.512;19.054;2023-01-25T08:46:36;102037.50;;;3.44;80.45
75891;BME280;64571;47.512;19.054;2023-01-25T08:49:38;102041.31;;;3.50;80.03
75891;BME280;64571;47.512;19.054;2023-01-25T08:52:41;102037.94;;;3.48;79.29
75891;BME280;64571;47.512;19.054;2023-01-25T08:55:44;102040.47;;;3.49;79.28
75891;BME280;64571;47.512;19.054;2023-01-25T08:58:48;102035.00;;;3.56;78.50
75891;BME280;64571;47.512;19.054;2023-01-25T09:01:51;102017.22;;;3.59;78.18
75891;BME280;64571;47.512;19.054;2023-01-25T09:04:54;102034.13;;;3.69;77.91
75891;BME280;64571;47.512;19.054;2023-01-25T09:07:57;102032.44;;;3.61;77.96
75891;BME280;64571;47.512;19.054;2023-01-25T09:11:17;102034.97;;;3.63;77.72
75891;BME280;64571;47.512;19.054;2023-01-25T09:14:20;102037.94;;;3.61;77.76
75891;BME280;64571;47.512;19.054;2023-01-25T09:17:23;102021.47;;;3.61;77.77
75891;BME280;64571;47.512;19.054;2023-01-25T09:20:26;102036.87;;;3.55;77.64
75891;BME280;64571;47.512;19.054;2023-01-25T09:23:29;102033.72;;;3.52;77.85
75891;BME280;64571;47.512;19.054;2023-01-25T09:26:36;102031.16;;;3.64;78.04
75891;BME280;64571;47.512;19.054;2023-01-25T09:29:39;102029.50;;;3.56;77.87
75891;BME280;64571;47.512;19.054;2023-01-25T09:32:48;102032.66;;;3.53;78.11
75891;BME280;64571;47.512;19.054;2023-01-25T09:35:52;102025.66;;;3.37;78.10
75891;BME280;64571;47.512;19.054;2023-01-25T09:38:54;102008.50;;;3.09;78.65
75891;BME280;64571;47.512;19.054;2023-01-25T09:42:20;102012.13;;;3.16;79.12
75891;BME280;64571;47.512;19.054;2023-01-25T09:45:35;102024.81;;;3.37;78.50
75891;BME280;64571;47.512;19.054;2023-01-25T09:48:47;102018.25;;;3.38;79.44
75891;BME280;64571;47.512;19.054;2023-01-25T09:55:17;102005.56;;;3.37;80.20
75891;BME280;64571;47.512;19.054;2023-01-25T09:58:25;101998.81;;;3.39;79.65
75891;BME280;64571;47.512;19.054;2023-01-25T10:04:50;101999.25;;;3.69;78.64
75891;BME280;64571;47.512;19.054;2023-01-25T10:11:25;101973.84;;;3.80;77.67
75891;BME280;64571;47.512;19.054;2023-01-25T10:14:28;101975.75;;;3.67;78.21
75891;BME280;64571;47.512;19.054;2023-01-25T10:17:40;101966.03;;;3.71;77.93
75891;BME280;64571;47.512;19.054;2023-01-25T10:20:51;101972.78;;;3.88;77.62
75891;BME280;64571;47.512;19.054;2023-01-25T10:27:31;101957.94;;;3.96;77.62
75891;BME280;64571;47.512;19.054;2023-01-25T10:30:57;101945.09;;;3.83;77.38
75891;BME280;64571;47.512;19.054;2023-01-25T10:34:14;101953.50;;;3.95;77.47
75891;BME280;64571;47.512;19.054;2023-01-25T10:37:21;101944.59;;;4.06;76.84
75891;BME280;64571;47.512;19.054;2023-01-25T10:40:25;101944.63;;;3.93;76.98
75891;BME280;64571;47.512;19.054;2023-01-25T10:43:28;101943.53;;;4.07;76.63
75891;BME280;64571;47.512;19.054;2023-01-25T10:46:31;101931.72;;;3.93;76.29
75891;BME280;64571;47.512;19.054;2023-01-25T10:49:53;101939.09;;;3.99;76.50
75891;BME280;64571;47.512;19.054;2023-01-25T10:52:57;101926.78;;;4.09;76.58
75891;BME280;64571;47.512;19.054;2023-01-25T11:02:43;101921.41;;;4.34;75.52
75891;BME280;64571;47.512;19.054;2023-01-25T11:05:56;101910.69;;;4.19;75.46
75891;BME280;64571;47.512;19.054;2023-01-25T11:12:21;101914.28;;;4.13;75.80
75891;BME280;64571;47.512;19.054;2023-01-25T11:15:24;101907.09;;;4.12;75.66
75891;BME280;64571;47.512;19.054;2023-01-25T11:18:29;101893.59;;;4.10;75.65
75891;BME280;64571;47.512;19.054;2023-01-25T11:21:51;101897.38;;;4.09;76.21
75891;BME280;64571;47.512;19.054;2023-01-25T11:24:53;101893.59;;;4.10;76.21
75891;BME280;64571;47.512;19.054;2023-01-25T11:28:21;101884.06;;;4.06;76.14
75891;BME280;64571;47.512;19.054;2023-01-25T11:31:25;101877.87;;;4.17;75.93
75891;BME280;64571;47.512;19.054;2023-01-25T11:34:28;101876.53;;;4.33;75.75
75891;BME280;64571;47.512;19.054;2023-01-25T11:51:40;101843.50;;;4.33;76.24
75891;BME280;64571;47.512;19.054;2023-01-25T12:11:00;101792.81;;;4.47;75.37
75891;BME280;64571;47.512;19.054;2023-01-25T12:24:34;101767.62;;;4.44;75.36
75891;BME280;64571;47.512;19.054;2023-01-25T12:34:02;101778.87;;;4.42;75.54
75891;BME280;64571;47.512;19.054;2023-01-25T12:37:15;101777.22;;;4.35;75.97
75891;BME280;64571;47.512;19.054;2023-01-25T12:40:25;101764.53;;;4.02;76.54
75891;BME280;64571;47.512;19.054;2023-01-25T12:44:21;101764.38;;;3.97;77.33
75891;BME280;64571;47.512;19.054;2023-01-25T12:50:33;101765.72;;;4.19;77.11
75891;BME280;64571;47.512;19.054;2023-01-25T12:53:41;101756.56;;;4.25;77.13
75891;BME280;64571;47.512;19.054;2023-01-25T13:09:57;101733.12;;;4.41;76.60
75891;BME280;64571;47.512;19.054;2023-01-25T13:13:02;101734.25;;;4.58;76.29
75891;BME280;64571;47.512;19.054;2023-01-25T13:16:40;101734.91;;;4.61;76.00
75891;BME280;64571;47.512;19.054;2023-01-25T13:19:44;101722.22;;;4.60;76.09
75891;BME280;64571;47.512;19.054;2023-01-25T13:35:46;101723.53;;;4.25;77.19
75891;BME280;64571;47.512;19.054;2023-01-25T13:38:48;101709.78;;;4.25;77.08
75891;BME280;64571;47.512;19.054;2023-01-25T13:42:04;101717.75;;;4.34;77.10
75891;BME280;64571;47.512;19.054;2023-01-25T13:45:19;101706.12;;;4.31;77.08
75891;BME280;64571;47.512;19.054;2023-01-25T13:48:24;101707.84;;;4.32;77.10
75891;BME280;64571;47.512;19.054;2023-01-25T13:51:32;101709.66;;;4.39;76.96
75891;BME280;64571;47.512;19.054;2023-01-25T13:54:44;101693.09;;;4.45;76.53
75891;BME280;64571;47.512;19.054;2023-01-25T13:57:47;101700.63;;;4.56;76.25
75891;BME280;64571;47.512;19.054;2023-01-25T14:03:59;101701.25;;;4.77;75.73
75891;BME280;64571;47.512;19.054;2023-01-25T14:07:03;101693.06;;;4.70;75.33
75891;BME280;64571;47.512;19.054;2023-01-25T14:10:18;101688.16;;;4.72;75.28
75891;BME280;64571;47.512;19.054;2023-01-25T14:13:24;101687.72;;;4.75;75.92
75891;BME280;64571;47.512;19.054;2023-01-25T14:16:29;101679.44;;;4.57;76.20
75891;BME280;64571;47.512;19.054;2023-01-25T14:19:35;101689.69;;;4.68;76.26
75891;BME280;64571;47.512;19.054;2023-01-25T14:22:38;101699.19;;;4.72;76.35
75891;BME280;64571;47.512;19.054;2023-01-25T14:25:40;101692.62;;;4.73;76.00
75891;BME280;64571;47.512;19.054;2023-01-25T14:28:48;101699.59;;;4.76;75.71
75891;BME280;64571;47.512;19.054;2023-01-25T14:32:03;101691.59;;;4.68;76.53
75891;BME280;64571;47.512;19.054;2023-01-25T14:38:50;101682.94;;;4.46;76.85
75891;BME280;64571;47.512;19.054;2023-01-25T14:41:53;101679.84;;;4.61;76.73
75891;BME280;64571;47.512;19.054;2023-01-25T14:45:03;101676.09;;;4.55;76.64
75891;BME280;64571;47.512;19.054;2023-01-25T14:48:35;101681.44;;;4.68;76.58
75891;BME280;64571;47.512;19.054;2023-01-25T14:52:15;101681.47;;;4.43;77.04
75891;BME280;64571;47.512;19.054;2023-01-25T14:55:08;101677.94;;;4.36;77.39
75891;BME280;64571;47.512;19.054;2023-01-25T14:58:21;101687.97;;;4.49;77.12
75891;BME280;64571;47.512;19.054;2023-01-25T15:01:31;101673.91;;;4.39;77.43
75891;BME280;64571;47.512;19.054;2023-01-25T15:04:35;101674.78;;;4.57;77.36
75891;BME280;64571;47.512;19.054;2023-01-25T15:10:55;101665.56;;;4.45;77.10
75891;BME280;64571;47.512;19.054;2023-01-25T15:14:03;101669.78;;;4.48;77.44
75891;BME280;64571;47.512;19.054;2023-01-25T15:17:46;101668.72;;;4.49;76.29
75891;BME280;64571;47.512;19.054;2023-01-25T15:20:50;101672.25;;;4.56;76.20
75891;BME280;64571;47.512;19.054;2023-01-25T15:23:55;101674.84;;;4.51;76.27
75891;BME280;64571;47.512;19.054;2023-01-25T15:26:58;101664.13;;;4.43;76.16
75891;BME280;64571;47.512;19.054;2023-01-25T15:30:01;101668.28;;;4.52;75.98
75891;BME280;64571;47.512;19.054;2023-01-25T15:33:03;101667.72;;;4.43;76.15
75891;BME280;64571;47.512;19.054;2023-01-25T15:36:08;101650.87;;;4.33;76.02
75891;BME280;64571;47.512;19.054;2023-01-25T15:39:13;101668.84;;;4.36;76.45
75891;BME280;64571;47.512;19.054;2023-01-25T15:42:16;101661.06;;;4.32;76.13
75891;BME280;64571;47.512;19.054;2023-01-25T15:45:19;101669.38;;;4.44;76.12
75891;BME280;64571;47.512;19.054;2023-01-25T15:48:37;101664.97;;;4.43;75.44
75891;BME280;64571;47.512;19.054;2023-01-25T15:51:42;101659.63;;;4.48;75.70
75891;BME280;64571;47.512;19.054;2023-01-25T15:54:44;101662.12;;;4.50;75.30
75891;BME280;64571;47.512;19.054;2023-01-25T15:58:02;101658.75;;;4.29;75.72
75891;BME280;64571;47.512;19.054;2023-01-25T16:01:05;101667.03;;;4.23;76.29
75891;BME280;64571;47.512;19.054;2023-01-25T16:04:09;101666.91;;;4.36;76.28
75891;BME280;64571;47.512;19.054;2023-01-25T16:07:22;101666.09;;;4.36;76.21
75891;BME280;64571;47.512;19.054;2023-01-25T16:10:26;101657.63;;;4.37;76.36
75891;BME280;64571;47.512;19.054;2023-01-25T16:13:28;101639.03;;;4.32;76.20
75891;BME280;64571;47.512;19.054;2023-01-25T16:16:33;101652.44;;;4.47;76.04
75891;BME280;64571;47.512;19.054;2023-01-25T16:19:38;101655.53;;;4.32;75.96
75891;BME280;64571;47.512;19.054;2023-01-25T16:22:41;101647.44;;;4.38;76.16
75891;BME280;64571;47.512;19.054;2023-01-25T16:25:46;101648.97;;;4.34;76.36
75891;BME280;64571;47.512;19.054;2023-01-25T16:28:49;101653.50;;;4.21;76.57
75891;BME280;64571;47.512;19.054;2023-01-25T16:31:53;101648.41;;;4.25;76.63
75891;BME280;64571;47.512;19.054;2023-01-25T16:34:56;101657.09;;;4.22;76.53
75891;BME280;64571;47.512;19.054;2023-01-25T16:37:58;101648.34;;;4.31;76.42
75891;BME280;64571;47.512;19.054;2023-01-25T16:41:01;101653.28;;;4.23;76.31
75891;BME280;64571;47.512;19.054;2023-01-25T16:44:03;101642.50;;;4.21;76.38
75891;BME280;64571;47.512;19.054;2023-01-25T16:47:06;101642.00;;;4.31;76.11
75891;BME280;64571;47.512;19.054;2023-01-25T16:50:14;101642.66;;;4.26;76.07
75891;BME280;64571;47.512;19.054;2023-01-25T16:53:17;101649.16;;;4.32;76.15
75891;BME280;64571;47.512;19.054;2023-01-25T16:56:22;101650.47;;;4.29;76.72
75891;BME280;64571;47.512;19.054;2023-01-25T16:59:25;101628.19;;;4.13;76.93
75891;BME280;64571;47.512;19.054;2023-01-25T17:02:27;101642.09;;;4.18;77.15
75891;BME280;64571;47.512;19.054;2023-01-25T17:05:30;101641.59;;;4.27;77.07
75891;BME280;64571;47.512;19.054;2023-01-25T17:08:35;101636.97;;;4.28;77.04
75891;BME280;64571;47.512;19.054;2023-01-25T17:11:37;101624.66;;;4.05;77.06
75891;BME280;64571;47.512;19.054;2023-01-25T17:14:41;101637.16;;;4.26;77.06
75891;BME280;64571;47.512;19.054;2023-01-25T17:17:43;101639.63;;;4.10;76.85
75891;BME280;64571;47.512;19.054;2023-01-25T17:20:55;101630.44;;;3.97;77.41
75891;BME280;64571;47.512;19.054;2023-01-25T17:23:59;101617.78;;;3.96;77.53
75891;BME280;64571;47.512;19.054;2023-01-25T17:27:03;101610.28;;;4.03;77.30
75891;BME280;64571;47.512;19.054;2023-01-25T17:30:07;101631.50;;;4.21;77.15
75891;BME280;64571;47.512;19.054;2023-01-25T17:33:10;101633.97;;;4.29;76.93
75891;BME280;64571;47.512;19.054;2023-01-25T17:36:14;101626.78;;;4.28;76.91
75891;BME280;64571;47.512;19.054;2023-01-25T17:39:18;101615.31;;;4.31;77.01
75891;BME280;64571;47.512;19.054;2023-01-25T17:42:21;101609.13;;;4.36;77.20
75891;BME280;64571;47.512;19.054;2023-01-25T17:45:25;101588.28;;;4.28;77.11
75891;BME280;64571;47.512;19.054;2023-01-25T17:48:28;101585.38;;;4.23;77.05
75891;BME280;64571;47.512;19.054;2023-01-25T17:51:30;101588.78;;;4.19;77.63
75891;BME280;64571;47.512;19.054;2023-01-25T17:54:34;101604.00;;;4.21;77.82
75891;BME280;64571;47.512;19.054;2023-01-25T17:57:37;101585.09;;;4.06;78.04
75891;BME280;64571;47.512;19.054;2023-01-25T18:00:40;101593.19;;;4.01;78.16
75891;BME280;64571;47.512;19.054;2023-01-25T18:03:43;101592.34;;;4.01;78.23
75891;BME280;64571;47.512;19.054;2023-01-25T18:06:46;101584.78;;;3.96;78.44